Time;durP1;ratioP1;P1;durP2;ratioP2;P2;SDS_P1;SDS_P2;PMS_P1;PMS_P2;Temp;Humidity;BMP_temperature;BMP_pressure;BME280_temperature;BME280_humidity;BME280_pressure;Samples;Min_cycle;Max_cycle;Signal;HPM_P1;HPM_P2
2022/12/17 13:06:49;;;;;;;119.82;59.00;;;;;;;-3.65;75.97;97601.98;1554244;90;25826;-70
2022/12/17 13:09:24;;;;;;;128.80;62.53;;;;;;;-3.58;75.98;97610.26;1526093;91;27007;-68
2022/12/17 13:12:03;;;;;;;125.38;61.20;;;;;;;-3.58;75.90;97600.55;1553993;90;25796;-69
2022/12/17 13:14:54;;;;;;;129.55;61.40;;;;;;;-3.62;75.86;97607.84;1525976;91;25831;-67
2022/12/17 13:17:57;;;;;;;132.05;62.88;;;;;;;-3.68;75.87;97610.13;1554478;90;27472;-69
2022/12/17 13:20:31;;;;;;;;;;;;;;;-3.70;75.97;97623.92;1507676;93;25732;-69
2022/12/17 13:23:30;;;;;;;134.43;66.87;;;;;;;-3.68;76.10;97620.69;1498081;94;25929;-70
2022/12/17 13:26:18;;;;;;;139.62;66.85;;;;;;;-3.76;76.11;97620.45;1457867;98;25872;-70
2022/12/17 13:29:00;;;;;;;130.75;63.48;;;;;;;-3.76;76.33;97617.33;1458405;98;25839;-69
2022/12/17 13:31:33;;;;;;;134.65;64.67;;;;;;;-3.73;76.33;97622.83;1459996;96;27780;-69
2022/12/17 13:34:08;;;;;;;146.20;70.85;;;;;;;-3.76;76.37;97631.84;1457006;98;26340;-68
2022/12/17 13:36:52;;;;;;;144.77;66.90;;;;;;;-3.67;76.50;97638.20;1478490;95;25892;-68
2022/12/17 13:39:29;;;;;;;137.77;64.72;;;;;;;-3.60;76.48;97630.16;1474928;97;26392;-68
2022/12/17 13:41:56;;;;;;;147.95;67.90;;;;;;;-3.58;76.37;97627.41;1498817;91;25753;-68
2022/12/17 13:44:28;;;;;;;139.12;66.25;;;;;;;-3.54;76.46;97642.90;1586876;90;27584;-71
2022/12/17 13:46:55;;;;;;;;;;;;;;;-3.51;76.47;97654.55;1525284;94;25854;-67
2022/12/17 13:49:26;;;;;;;132.95;64.40;;;;;;;-3.48;76.55;97656.08;1536329;93;25920;-68
2022/12/17 13:52:18;;;;;;;148.97;71.60;;;;;;;-3.49;76.51;97660.52;1536447;93;26956;-68
2022/12/17 13:54:45;;;;;;;143.85;68.67;;;;;;;-3.44;76.57;97664.97;1536066;93;25777;-68
2022/12/17 13:57:24;;;;;;;130.78;61.63;;;;;;;-3.39;76.49;97659.36;1535963;93;27425;-67
2022/12/17 13:59:57;;;;;;;138.65;63.28;;;;;;;-3.39;76.47;97672.07;1536053;93;25767;-71
2022/12/17 14:02:35;;;;;;;129.93;61.23;;;;;;;-3.40;76.47;97678.78;1505736;93;25867;-68
2022/12/17 14:05:06;;;;;;;145.72;64.58;;;;;;;-3.42;76.45;97693.42;1552455;89;26258;-68
2022/12/17 14:07:37;;;;;;;142.53;65.57;;;;;;;-3.40;76.57;97695.47;1621825;85;25786;-67
2022/12/17 14:10:16;;;;;;;146.30;67.75;;;;;;;-3.34;76.61;97694.14;1652380;85;27423;-68
2022/12/17 14:12:43;;;;;;;138.32;64.00;;;;;;;-3.30;76.59;97698.23;1669274;83;26283;-69
2022/12/17 14:15:28;;;;;;;135.48;65.08;;;;;;;-3.29;76.53;97699.44;1675369;83;25772;-68
2022/12/17 14:17:57;;;;;;;144.02;66.07;;;;;;;-3.29;76.46;97704.72;1662616;83;25750;-68
2022/12/17 14:20:34;;;;;;;142.68;64.07;;;;;;;-3.32;76.44;97712.86;1682735;83;25730;-68
2022/12/17 14:23:15;;;;;;;146.35;67.47;;;;;;;-3.38;76.37;97711.19;1676216;83;27383;-71
2022/12/17 14:25:43;;;;;;;149.45;68.50;;;;;;;-3.41;76.42;97714.89;1682671;83;25889;-71
2022/12/17 14:28:30;;;;;;;141.60;65.17;;;;;;;-3.37;76.48;97720.28;1680015;84;25600;-70
2022/12/17 14:31:23;;;;;;;140.37;65.87;;;;;;;-3.40;76.36;97722.34;1677354;83;25805;-68
2022/12/17 14:34:06;;;;;;;143.68;65.35;;;;;;;-3.47;76.41;97732.50;1676262;83;25845;-71
2022/12/17 14:36:39;;;;;;;;;;;;;;;-3.44;76.51;97745.47;1646011;85;27362;-69
2022/12/17 14:39:28;;;;;;;151.37;68.92;;;;;;;-3.45;76.54;97753.50;1657792;86;25770;-68
2022/12/17 14:44:53;;;;;;;150.70;68.42;;;;;;;-3.36;76.65;97758.08;1586913;90;26098;-69
2022/12/17 14:47:34;;;;;;;149.20;68.55;;;;;;;-3.31;76.66;97762.55;1558698;90;25866;-70
2022/12/17 14:50:15;;;;;;;155.67;71.92;;;;;;;-3.27;76.64;97768.80;1578202;89;27432;-67
2022/12/17 14:52:52;;;;;;;146.05;66.47;;;;;;;-3.21;76.60;97775.87;1605971;89;25743;-69
2022/12/17 14:55:41;;;;;;;146.82;65.97;;;;;;;-3.20;76.52;97782.36;1529579;91;25855;-68
2022/12/17 14:58:16;;;;;;;150.62;68.22;;;;;;;-3.19;76.50;97780.56;1591308;88;26137;-70
2022/12/17 15:00:51;;;;;;;151.55;67.20;;;;;;;-3.16;76.50;97788.27;1594290;88;25365;-70
2022/12/17 15:03:22;;;;;;;157.88;66.95;;;;;;;-3.18;76.36;97791.49;1517809;93;27378;-68
2022/12/17 15:05:59;;;;;;;147.47;66.20;;;;;;;-3.21;76.36;97803.59;1494493;94;25832;-68
2022/12/17 15:08:34;;;;;;;141.37;65.32;;;;;;;-3.20;76.41;97800.84;1494100;94;26756;-71
2022/12/17 15:11:02;;;;;;;143.13;64.42;;;;;;;-3.19;76.32;97801.69;1494380;94;26205;-68
2022/12/17 15:13:29;;;;;;;156.82;67.37;;;;;;;-3.24;76.17;97805.14;1494377;94;26390;-68
2022/12/17 15:15:58;;;;;;;143.95;62.23;;;;;;;-3.36;76.08;97811.72;1494401;94;27782;-68
2022/12/17 15:18:25;;;;;;;152.27;66.75;;;;;;;-3.38;76.17;97813.63;1494038;94;25908;-69
2022/12/17 15:20:51;;;;;;;143.70;64.72;;;;;;;-3.42;76.17;97818.79;1494292;94;25951;-68
2022/12/17 15:23:21;;;;;;;148.22;65.70;;;;;;;-3.41;76.22;97815.20;1494409;94;26742;-70
2022/12/17 15:25:50;;;;;;;171.05;72.90;;;;;;;-3.40;76.28;97823.48;1494386;94;25633;-68
2022/12/17 15:28:19;;;;;;;168.68;73.17;;;;;;;-3.37;76.44;97826.34;1494444;94;28197;-67
2022/12/17 15:30:47;;;;;;;166.47;72.30;;;;;;;-3.32;76.47;97826.38;1494261;94;25858;-69
2022/12/17 15:33:15;;;;;;;164.07;75.72;;;;;;;-3.26;76.44;97825.91;1494227;94;25827;-68
2022/12/17 15:35:43;;;;;;;173.75;78.85;;;;;;;-3.20;76.35;97831.69;1494201;94;25957;-70
2022/12/17 15:38:11;;;;;;;177.22;81.12;;;;;;;-3.19;76.30;97833.38;1494468;94;25587;-68
2022/12/17 15:40:40;;;;;;;189.62;87.15;;;;;;;-3.19;76.36;97836.02;1526274;88;27436;-69
2022/12/17 15:43:10;;;;;;;203.30;93.92;;;;;;;-3.22;76.31;97838.41;1633672;86;25761;-67
2022/12/17 15:45:50;;;;;;;196.53;89.52;;;;;;;-3.18;76.38;97844.30;1578559;90;25365;-68
2022/12/17 15:48:20;;;;;;;205.07;94.60;;;;;;;-3.16;76.37;97846.35;1596076;89;25919;-69
2022/12/17 15:50:48;;;;;;;225.75;104.00;;;;;;;-3.14;76.42;97855.01;1587787;90;25335;-69
2022/12/17 15:53:15;;;;;;;212.25;95.87;;;;;;;-3.14;76.44;97854.50;1587661;89;27765;-69
2022/12/17 15:55:42;;;;;;;217.22;100.02;;;;;;;-3.15;76.40;97854.16;1587894;89;25877;-68
2022/12/17 15:58:10;;;;;;;226.98;103.35;;;;;;;-3.16;76.38;97859.08;1592041;88;25759;-68
2022/12/17 16:00:38;;;;;;;209.85;97.90;;;;;;;-3.16;76.39;97856.92;1669941;82;26569;-68
2022/12/17 16:03:06;;;;;;;224.95;102.55;;;;;;;-3.12;76.47;97853.06;1731306;80;25729;-69
2022/12/17 16:05:34;;;;;;;231.95;105.80;;;;;;;-3.09;76.47;97855.00;1762940;79;27298;-69
2022/12/17 16:08:01;;;;;;;209.65;95.35;;;;;;;-3.06;76.48;97857.91;1763226;81;25825;-68
2022/12/17 16:10:29;;;;;;;245.67;114.85;;;;;;;-3.03;76.33;97859.00;1763033;79;25692;-70
2022/12/17 16:12:57;;;;;;;239.53;113.85;;;;;;;-3.05;76.27;97862.23;1762732;81;25795;-68
2022/12/17 16:15:25;;;;;;;244.43;114.00;;;;;;;-3.06;76.30;97865.34;1763055;80;25775;-69
2022/12/17 16:17:51;;;;;;;245.70;115.88;;;;;;;-3.02;76.35;97868.10;1763226;80;27421;-69
2022/12/17 16:20:20;;;;;;;254.28;113.92;;;;;;;-2.99;76.33;97872.31;1763037;81;26639;-68
2022/12/17 16:22:47;;;;;;;217.85;96.40;;;;;;;-2.97;76.37;97869.92;1763124;80;25732;-68
2022/12/17 16:25:15;;;;;;;238.18;112.05;;;;;;;-2.93;76.31;97873.19;1763383;80;25827;-68
2022/12/17 16:27:42;;;;;;;222.35;114.92;;;;;;;-2.88;76.24;97870.17;1762792;80;25766;-69
2022/12/17 16:30:11;;;;;;;200.95;99.13;;;;;;;-2.87;76.18;97874.03;1762905;81;28012;-69
2022/12/17 16:32:39;;;;;;;223.18;103.85;;;;;;;-2.88;76.12;97869.70;1763077;79;25736;-69
2022/12/17 16:35:08;;;;;;;295.33;126.85;;;;;;;-2.85;76.14;97877.40;1763020;81;25293;-68
2022/12/17 16:37:38;;;;;;;277.50;114.40;;;;;;;-2.84;76.08;97883.05;1763250;80;25713;-68
2022/12/17 16:40:09;;;;;;;255.20;106.40;;;;;;;-2.85;76.02;97886.64;1763239;80;25715;-69
2022/12/17 16:42:37;;;;;;;255.50;109.30;;;;;;;-2.84;76.02;97894.94;1802362;78;27587;-68
2022/12/17 16:45:07;;;;;;;261.27;104.12;;;;;;;-2.82;75.96;97898.31;1804121;78;25633;-69
2022/12/17 16:47:34;;;;;;;213.35;85.35;;;;;;;-2.84;75.92;97897.58;1806987;78;25182;-70
2022/12/17 16:50:01;;;;;;;203.88;83.05;;;;;;;-2.88;75.87;97900.56;1829492;76;25755;-69
2022/12/17 16:52:28;;;;;;;175.57;74.92;;;;;;;-2.91;75.85;97908.26;1837521;76;25764;-69
2022/12/17 16:54:56;;;;;;;166.68;72.75;;;;;;;-2.94;75.93;97917.25;1844828;77;27444;-69
2022/12/17 16:57:24;;;;;;;170.45;68.17;;;;;;;-2.91;75.94;97917.03;1853172;77;25263;-69
2022/12/17 16:59:51;;;;;;;189.30;72.70;;;;;;;-2.93;75.82;97923.38;1845624;76;25682;-71
2022/12/17 17:02:18;;;;;;;181.65;78.47;;;;;;;-2.99;75.84;97923.82;1830795;77;25704;-71
2022/12/17 17:04:48;;;;;;;165.92;73.50;;;;;;;-3.02;75.92;97922.75;1829421;77;25526;-68
2022/12/17 17:07:15;;;;;;;171.70;76.22;;;;;;;-3.01;75.94;97933.66;1829511;77;27714;-69
2022/12/17 17:09:44;;;;;;;166.53;76.72;;;;;;;-2.99;76.00;97938.34;1829295;77;25743;-69
2022/12/17 17:12:12;;;;;;;192.70;83.85;;;;;;;-2.95;76.05;97945.09;1833229;77;25696;-69
2022/12/17 17:14:39;;;;;;;207.65;87.70;;;;;;;-2.91;76.06;97947.41;1848587;77;25770;-69
2022/12/17 17:17:06;;;;;;;196.28;83.97;;;;;;;-2.92;76.07;97947.52;1829569;77;25880;-72
2022/12/17 17:19:33;;;;;;;205.85;93.22;;;;;;;-2.98;75.93;97947.95;1841405;77;27387;-68
2022/12/17 17:22:00;;;;;;;205.77;91.80;;;;;;;-3.05;75.99;97951.55;1840867;77;25655;-70
2022/12/17 17:24:27;;;;;;;213.05;94.05;;;;;;;-3.09;76.03;97954.05;1829525;77;25685;-69
2022/12/17 17:26:55;;;;;;;191.00;86.28;;;;;;;-3.13;76.10;97962.29;1829515;77;26533;-69
2022/12/17 17:29:24;;;;;;;198.05;87.15;;;;;;;-3.19;76.11;97963.60;1829757;77;25644;-71
2022/12/17 17:31:51;;;;;;;206.02;90.32;;;;;;;-3.21;76.28;97966.83;1829359;77;27432;-68
2022/12/17 17:34:18;;;;;;;203.12;91.75;;;;;;;-3.18;76.43;97981.13;1833352;77;25802;-71
2022/12/17 17:36:45;;;;;;;199.05;88.27;;;;;;;-3.11;76.42;97974.91;1848813;77;25676;-69
2022/12/17 17:39:12;;;;;;;205.83;90.90;;;;;;;-3.07;76.39;97976.38;1829450;77;25675;-69
2022/12/17 17:41:39;;;;;;;196.12;87.92;;;;;;;-3.04;76.41;97981.45;1829567;77;25211;-69
2022/12/17 17:44:09;;;;;;;193.72;88.97;;;;;;;-3.06;76.33;97981.55;1829505;77;27422;-69
2022/12/17 17:46:37;;;;;;;217.93;102.07;;;;;;;-3.06;76.37;97983.35;1829332;77;25771;-69
2022/12/17 17:49:07;;;;;;;230.67;104.17;;;;;;;-3.04;76.41;97988.05;1829184;77;25629;-72
2022/12/17 17:51:39;;;;;;;230.83;109.75;;;;;;;-3.03;76.43;97993.70;1853276;77;26416;-73
2022/12/17 17:54:07;;;;;;;227.97;105.35;;;;;;;-3.03;76.42;97996.34;1829303;77;25813;-68
2022/12/17 17:56:38;;;;;;;235.10;109.55;;;;;;;-3.04;76.38;98001.26;1829459;77;27342;-68
2022/12/17 17:59:12;;;;;;;239.60;115.67;;;;;;;-3.05;76.46;98008.34;1847151;77;26092;-69
2022/12/17 18:01:46;;;;;;;238.22;114.55;;;;;;;-3.04;76.54;98005.22;1840051;77;25790;-69
2022/12/17 18:04:17;;;;;;;230.92;106.17;;;;;;;-3.04;76.51;98008.70;1801595;78;25705;-70
2022/12/17 18:06:46;;;;;;;218.20;99.25;;;;;;;-3.05;76.50;98011.45;1814450;77;25863;-69
2022/12/17 18:09:15;;;;;;;204.10;93.58;;;;;;;-3.04;76.54;98017.10;1826816;78;27373;-71
2022/12/17 18:11:43;;;;;;;195.65;90.55;;;;;;;-3.06;76.55;98015.89;1803718;78;25765;-68
2022/12/17 18:14:14;;;;;;;192.57;88.33;;;;;;;-3.07;76.61;98012.88;1803824;78;25947;-71
2022/12/17 18:16:47;;;;;;;180.63;83.67;;;;;;;-3.05;76.66;98016.73;1803966;78;26296;-68
2022/12/17 18:19:20;;;;;;;189.90;84.28;;;;;;;-3.06;76.66;98009.29;1803863;78;25719;-68
2022/12/17 18:21:48;;;;;;;197.02;90.10;;;;;;;-3.09;76.67;98015.27;1803812;78;27366;-70
2022/12/17 18:24:22;;;;;;;214.05;97.27;;;;;;;-3.07;76.69;98017.31;1818777;78;25684;-69
2022/12/17 18:26:51;;;;;;;198.80;90.97;;;;;;;-3.07;76.70;98019.95;1810001;78;25666;-69
2022/12/17 18:29:22;;;;;;;203.47;91.82;;;;;;;-3.08;76.75;98023.55;1803688;78;26471;-68
2022/12/17 18:31:52;;;;;;;207.43;90.17;;;;;;;-3.09;76.84;98027.14;1804187;78;25488;-70
2022/12/17 18:34:25;;;;;;;196.93;91.05;;;;;;;-3.08;76.81;98034.12;1803589;78;27444;-69
2022/12/17 18:36:52;;;;;;;203.60;93.55;;;;;;;-3.08;76.80;98043.36;1803667;78;25685;-71
2022/12/17 18:39:23;;;;;;;186.88;89.72;;;;;;;-3.06;76.90;98048.06;1803968;78;25750;-67
2022/12/17 18:44:41;;;;;;;208.72;95.12;;;;;;;-3.04;76.84;98051.44;1803738;78;25853;-70
2022/12/17 18:47:10;;;;;;;198.28;91.00;;;;;;;-3.04;76.85;98051.44;1802267;78;26786;-69
2022/12/17 18:49:38;;;;;;;206.20;92.88;;;;;;;-3.02;76.92;98060.09;1797276;77;25669;-68
2022/12/17 18:52:05;;;;;;;182.62;83.58;;;;;;;-3.04;76.91;98059.36;1827536;77;25717;-69
2022/12/17 18:54:33;;;;;;;203.20;93.62;;;;;;;-3.01;76.97;98060.44;1763736;79;25730;-72
2022/12/17 18:57:01;;;;;;;212.80;96.42;;;;;;;-2.97;76.99;98058.80;1794716;77;25956;-72
2022/12/17 18:59:31;;;;;;;220.42;100.92;;;;;;;-2.94;77.01;98059.90;1806891;77;27976;-71
2022/12/17 19:01:58;;;;;;;203.67;96.55;;;;;;;-2.96;76.92;98063.60;1813168;77;25684;-69
2022/12/17 19:04:27;;;;;;;207.10;96.10;;;;;;;-2.98;76.90;98062.39;1794753;77;25728;-70
2022/12/17 19:06:55;;;;;;;211.65;99.07;;;;;;;-3.00;76.94;98066.09;1796781;77;26460;-69
2022/12/17 19:09:35;;;;;;;206.78;95.77;;;;;;;-2.99;77.00;98069.09;1824510;77;25678;-69
2022/12/17 19:12:06;;;;;;;207.92;94.37;;;;;;;-3.00;77.00;98070.89;1827576;77;27353;-71
2022/12/17 19:14:34;;;;;;;204.40;96.37;;;;;;;-3.00;77.03;98074.02;1726863;81;25261;-68
2022/12/17 19:17:02;;;;;;;207.43;95.62;;;;;;;-3.02;77.03;98071.98;1726956;81;25667;-70
2022/12/17 19:19:31;;;;;;;204.70;96.75;;;;;;;-3.02;77.07;98071.48;1726731;83;26534;-69
2022/12/17 19:22:00;;;;;;;216.33;95.95;;;;;;;-3.01;77.08;98076.28;1726851;81;25837;-69
2022/12/17 19:24:30;;;;;;;198.87;95.72;;;;;;;-3.01;77.08;98082.89;1726999;81;28366;-69
2022/12/17 19:27:00;;;;;;;209.75;100.10;;;;;;;-3.01;77.09;98088.17;1726840;83;25636;-69
2022/12/17 19:29:29;;;;;;;234.77;111.45;;;;;;;-3.01;77.10;98095.63;1726641;81;25908;-71
2022/12/17 19:31:57;;;;;;;240.72;111.52;;;;;;;-3.00;77.11;98092.03;1726554;82;26514;-73
2022/12/17 19:34:24;;;;;;;250.10;114.22;;;;;;;-3.00;77.10;98092.50;1726924;82;25702;-70
2022/12/17 19:36:52;;;;;;;226.40;104.92;;;;;;;-2.99;77.15;98099.00;1726820;82;27354;-69
2022/12/17 19:39:20;;;;;;;213.57;98.87;;;;;;;-2.96;77.21;98094.83;1726875;82;25684;-72
2022/12/17 19:41:48;;;;;;;226.27;98.82;;;;;;;-2.91;77.28;98105.07;1726924;83;25818;-68
2022/12/17 19:44:19;;;;;;;230.67;103.60;;;;;;;-2.89;77.25;98111.06;1726960;81;25915;-69
2022/12/17 19:46:49;;;;;;;257.67;116.05;;;;;;;-2.87;77.20;98112.27;1726814;82;26090;-73
2022/12/17 19:49:17;;;;;;;276.73;126.12;;;;;;;-2.88;77.15;98122.48;1724806;81;27541;-72
2022/12/17 19:51:45;;;;;;;279.10;126.05;;;;;;;-2.95;77.09;98121.61;1721804;83;25794;-69
2022/12/17 19:54:14;;;;;;;282.23;128.30;;;;;;;-2.97;77.14;98127.47;1721932;83;25832;-70
2022/12/17 19:56:43;;;;;;;297.37;138.30;;;;;;;-2.93;77.21;98129.43;1722027;83;25722;-72
2022/12/17 19:59:12;;;;;;;304.60;134.03;;;;;;;-2.91;77.16;98140.73;1703441;83;25910;-69
2022/12/17 20:01:44;;;;;;;292.07;127.87;;;;;;;-2.93;77.13;98142.64;1699790;84;28256;-69
2022/12/17 20:04:15;;;;;;;303.32;130.65;;;;;;;-2.89;77.18;98146.73;1706820;83;25688;-69
2022/12/17 20:06:43;;;;;;;197.80;88.80;;;;;;;-2.85;77.19;98148.20;1722072;83;25813;-67
2022/12/17 20:09:10;;;;;;;251.98;110.75;;;;;;;-2.80;77.19;98154.02;1721885;83;25847;-69
2022/12/17 20:11:38;;;;;;;234.67;100.72;;;;;;;-2.80;77.12;98150.05;1749972;81;25784;-69
2022/12/17 20:14:20;;;;;;;225.25;100.60;;;;;;;-2.79;77.04;98157.03;1773227;79;28244;-69
2022/12/17 20:16:52;;;;;;;169.97;74.82;;;;;;;-2.78;77.04;98156.08;1731480;81;25732;-69
2022/12/17 20:19:27;;;;;;;211.45;91.50;;;;;;;-2.77;77.01;98160.38;1723397;82;25798;-70
2022/12/17 20:21:55;;;;;;;208.35;90.22;;;;;;;-2.78;76.97;98164.00;1731509;82;26407;-69
2022/12/17 20:24:22;;;;;;;207.60;89.70;;;;;;;-2.79;76.88;98168.92;1731480;82;25754;-71
2022/12/17 20:26:53;;;;;;;207.00;90.92;;;;;;;-2.81;76.84;98172.14;1731022;82;28597;-69
2022/12/17 20:29:22;;;;;;;208.85;92.05;;;;;;;-2.81;76.83;98178.75;1710440;82;25772;-69
2022/12/17 20:31:51;;;;;;;212.40;95.42;;;;;;;-2.87;76.71;98175.69;1731264;82;25843;-71
2022/12/17 20:34:19;;;;;;;212.93;91.70;;;;;;;-2.93;76.72;98180.95;1710837;82;25861;-72
2022/12/17 20:36:48;;;;;;;201.88;89.07;;;;;;;-3.00;76.66;98188.91;1689442;84;25792;-69
2022/12/17 20:39:16;;;;;;;197.62;85.38;;;;;;;-3.03;76.79;98191.33;1696850;82;27397;-72
2022/12/17 20:41:44;;;;;;;200.50;85.53;;;;;;;-3.12;76.60;98188.45;1731280;82;25791;-69
2022/12/17 20:44:14;;;;;;;191.70;84.90;;;;;;;-3.10;76.79;98199.77;1711042;82;25792;-69
2022/12/17 20:46:42;;;;;;;205.25;87.85;;;;;;;-3.11;76.69;98196.75;1711479;82;25859;-69
2022/12/17 20:49:12;;;;;;;198.95;84.40;;;;;;;-3.13;76.74;98206.09;1731279;82;25776;-70
2022/12/17 20:51:41;;;;;;;198.57;82.15;;;;;;;-3.12;76.75;98209.58;1728105;82;27401;-70
2022/12/17 20:54:10;;;;;;;202.00;83.65;;;;;;;-3.10;76.76;98210.33;1731678;82;25794;-69
2022/12/17 20:56:39;;;;;;;189.22;80.38;;;;;;;-3.10;76.70;98209.00;1740292;82;25819;-73
2022/12/17 20:59:11;;;;;;;189.32;80.50;;;;;;;-3.11;76.76;98213.91;1719267;82;25741;-69
2022/12/17 21:01:39;;;;;;;180.52;77.92;;;;;;;-3.09;76.83;98225.22;1719467;82;26022;-72
2022/12/17 21:04:06;;;;;;;173.43;76.55;;;;;;;-3.07;76.83;98223.33;1727904;82;27433;-73
2022/12/17 21:06:41;;;;;;;177.05;71.53;;;;;;;-3.09;76.72;98226.07;1731203;82;25718;-70
2022/12/17 21:09:10;;;;;;;181.02;76.25;;;;;;;-3.08;76.69;98227.77;1727297;82;26580;-71
2022/12/17 21:11:40;;;;;;;180.78;77.30;;;;;;;-3.10;76.62;98234.09;1754128;79;26342;-69
2022/12/17 21:14:13;;;;;;;183.52;76.45;;;;;;;-3.14;76.58;98241.37;1776025;79;25745;-69
2022/12/17 21:16:41;;;;;;;170.05;72.05;;;;;;;-3.13;76.57;98242.22;1782652;79;27383;-69
2022/12/17 21:19:13;;;;;;;178.07;75.83;;;;;;;-3.14;76.49;98251.12;1794663;78;25479;-68
2022/12/17 21:21:40;;;;;;;179.12;74.97;;;;;;;-3.18;76.52;98255.77;1766256;79;25820;-68
2022/12/17 21:24:09;;;;;;;179.38;76.05;;;;;;;-3.19;76.55;98254.07;1797679;77;25791;-71
2022/12/17 21:26:39;;;;;;;188.87;78.70;;;;;;;-3.19;76.56;98251.91;1798023;77;25634;-72
2022/12/17 21:29:08;;;;;;;180.37;75.08;;;;;;;-3.17;76.58;98253.50;1797901;77;28181;-71
2022/12/17 21:31:39;;;;;;;186.00;77.80;;;;;;;-3.18;76.50;98257.56;1797573;77;25203;-72
2022/12/17 21:34:10;;;;;;;186.20;77.60;;;;;;;-3.17;76.55;98255.30;1798360;77;25666;-69
2022/12/17 21:36:37;;;;;;;187.68;77.12;;;;;;;-3.19;76.44;98261.14;1798093;77;25678;-69
2022/12/17 21:39:06;;;;;;;180.82;75.57;;;;;;;-3.23;76.43;98268.42;1820314;77;25862;-69
2022/12/17 21:41:36;;;;;;;192.35;78.35;;;;;;;-3.36;76.24;98272.84;1820504;77;27431;-70
2022/12/17 21:44:06;;;;;;;185.35;73.90;;;;;;;-3.41;76.43;98278.45;1797800;78;25709;-68
2022/12/17 21:46:33;;;;;;;205.03;81.53;;;;;;;-3.41;76.53;98278.45;1820830;77;25643;-68
2022/12/17 21:49:02;;;;;;;195.80;77.72;;;;;;;-3.48;76.50;98285.08;1797560;77;25723;-69
2022/12/17 21:51:30;;;;;;;198.75;79.32;;;;;;;-3.54;76.48;98285.50;1794526;77;25450;-68
2022/12/17 21:54:01;;;;;;;210.10;82.15;;;;;;;-3.53;76.64;98287.67;1794542;77;28225;-68
2022/12/17 21:56:29;;;;;;;206.20;79.42;;;;;;;-3.48;76.77;98293.47;1794295;77;25826;-68
2022/12/17 21:58:58;;;;;;;207.47;82.20;;;;;;;-3.56;76.63;98292.67;1794622;77;25637;-71
2022/12/17 22:01:30;;;;;;;206.75;81.97;;;;;;;-3.54;76.75;98293.42;1802863;77;25661;-69
2022/12/17 22:04:00;;;;;;;199.77;78.10;;;;;;;-3.50;76.77;98298.84;1764956;80;25747;-67
2022/12/17 22:06:30;;;;;;;205.45;79.95;;;;;;;-3.49;76.78;98303.18;1766589;81;27369;-69
2022/12/17 22:08:58;;;;;;;202.72;77.65;;;;;;;-3.46;76.76;98305.62;1766445;81;25665;-70
2022/12/17 22:11:26;;;;;;;194.13;75.87;;;;;;;-3.49;76.65;98309.78;1766698;81;25818;-69
2022/12/17 22:14:09;;;;;;;187.35;73.20;;;;;;;-3.51;76.67;98311.70;1766479;80;25894;-71
2022/12/17 22:16:42;;;;;;;184.47;67.07;;;;;;;-3.55;76.62;98314.16;1765940;80;25747;-68
2022/12/17 22:19:15;;;;;;;193.55;76.37;;;;;;;-3.67;76.60;98324.20;1766721;80;28200;-71
2022/12/17 22:21:45;;;;;;;191.95;75.00;;;;;;;-3.88;76.61;98328.25;1707888;84;25739;-68
2022/12/17 22:24:19;;;;;;;186.30;72.60;;;;;;;-3.96;76.81;98333.16;1708154;84;25798;-69
2022/12/17 22:26:47;;;;;;;188.40;71.22;;;;;;;-4.00;76.93;98330.73;1708172;83;25692;-68
2022/12/17 22:34:46;;;;;;;197.70;75.35;;;;;;;-4.02;77.07;98348.45;1688380;83;25857;-68
2022/12/17 22:37:13;;;;;;;174.60;73.83;;;;;;;-4.08;77.15;98346.19;1708281;83;25808;-69
2022/12/17 22:39:41;;;;;;;187.77;72.90;;;;;;;-4.08;77.22;98343.55;1708203;83;26224;-68
2022/12/17 22:44:54;;;;;;;173.15;70.25;;;;;;;-4.18;77.05;98354.78;1707965;84;27778;-68
2022/12/17 22:47:22;;;;;;;164.15;65.32;;;;;;;-4.36;77.05;98357.65;1707972;84;25900;-68
2022/12/17 22:49:48;;;;;;;163.72;66.65;;;;;;;-4.36;77.15;98358.97;1708970;83;25718;-68
2022/12/17 22:52:15;;;;;;;163.68;64.07;;;;;;;-4.42;77.16;98365.08;1693721;84;26247;-68
2022/12/17 22:54:42;;;;;;;155.07;61.23;;;;;;;-4.41;77.16;98367.62;1693659;84;26274;-68
2022/12/17 22:57:08;;;;;;;146.77;62.30;;;;;;;-4.41;77.12;98364.98;1693903;84;27385;-68
2022/12/17 22:59:35;;;;;;;147.70;58.90;;;;;;;-4.45;76.99;98371.84;1693550;84;25736;-71
2022/12/17 23:02:02;;;;;;;147.07;60.12;;;;;;;-4.43;77.04;98381.83;1708229;82;25749;-68
2022/12/17 23:04:29;;;;;;;144.97;58.17;;;;;;;-4.38;77.05;98382.41;1745322;80;26995;-68
2022/12/17 23:06:55;;;;;;;128.53;55.23;;;;;;;-4.31;77.01;98382.85;1779381;80;25697;-69
2022/12/17 23:09:22;;;;;;;131.12;55.80;;;;;;;-4.36;76.69;98383.16;1739761;81;27352;-69
2022/12/17 23:11:49;;;;;;;138.18;57.08;;;;;;;-4.46;76.64;98385.95;1738606;80;25766;-69
2022/12/17 23:14:17;;;;;;;138.97;56.92;;;;;;;-4.51;76.66;98384.95;1737016;80;25783;-71
2022/12/17 23:16:44;;;;;;;136.72;57.98;;;;;;;-4.52;76.71;98394.26;1740860;80;25739;-70
2022/12/17 23:19:12;;;;;;;142.55;56.98;;;;;;;-4.57;76.70;98393.67;1762571;78;26181;-68
2022/12/17 23:21:39;;;;;;;125.38;54.48;;;;;;;-4.52;76.81;98396.89;1773479;79;27415;-68
2022/12/17 23:24:08;;;;;;;131.90;55.63;;;;;;;-4.49;76.68;98404.15;1744983;81;25797;-68
2022/12/17 23:26:36;;;;;;;140.12;54.30;;;;;;;-4.47;76.66;98404.88;1792712;77;25726;-68
2022/12/17 23:29:07;;;;;;;135.85;56.85;;;;;;;-4.46;76.42;98408.36;1811845;77;26307;-68
2022/12/17 23:31:37;;;;;;;136.18;54.83;;;;;;;-4.51;76.44;98407.34;1734470;82;25796;-70
2022/12/17 23:34:04;;;;;;;131.05;52.88;;;;;;;-4.51;76.38;98405.17;1734802;82;28151;-68
2022/12/17 23:36:32;;;;;;;139.80;53.58;;;;;;;-4.63;76.13;98408.56;1734797;82;25936;-68
2022/12/17 23:38:59;;;;;;;132.03;53.75;;;;;;;-4.75;76.14;98410.99;1734607;82;36179;-68
2022/12/17 23:41:29;;;;;;;130.65;52.27;;;;;;;-4.79;76.26;98413.42;1734821;82;25790;-68
2022/12/17 23:43:57;;;;;;;135.55;54.53;;;;;;;-4.76;76.38;98418.98;1734530;82;25823;-68
2022/12/17 23:46:27;;;;;;;135.45;54.35;;;;;;;-4.71;76.40;98418.25;1734870;82;27383;-68
2022/12/17 23:48:55;;;;;;;125.00;54.18;;;;;;;-4.71;76.23;98417.75;1734842;82;25800;-68
2022/12/17 23:51:24;;;;;;;128.18;54.27;;;;;;;-4.77;76.17;98423.41;1734468;81;25594;-68
2022/12/17 23:53:51;;;;;;;130.18;51.25;;;;;;;-4.82;76.16;98430.72;1727069;81;25727;-67
2022/12/17 23:56:22;;;;;;;127.17;49.90;;;;;;;-4.83;76.23;98434.79;1726906;81;25660;-68
2022/12/17 23:58:53;;;;;;;103.45;40.95;;;;;;;-4.87;76.21;98435.89;1624212;88;27489;-68
